Time;durP1;ratioP1;P1;durP2;ratioP2;P2;SDS_P1;SDS_P2;PMS_P1;PMS_P2;Temp;Humidity;BMP_temperature;BMP_pressure;BME280_temperature;BME280_humidity;BME280_pressure;Samples;Min_cycle;Max_cycle;Signal;HPM_P1;HPM_P2
2020/12/14 00:02:13;;;;;;;118.93;35.63;;;4.50;99.90;;;;;;5034342;28;20857;-74
2020/12/14 00:04:39;;;;;;;82.47;34.57;;;4.50;99.90;;;;;;5034298;28;20170;-74
2020/12/14 00:07:05;;;;;;;101.53;38.63;;;4.60;99.90;;;;;;5034066;28;20409;-74
2020/12/14 00:09:31;;;;;;;72.93;34.07;;;4.50;99.90;;;;;;5034197;28;20446;-73
2020/12/14 00:11:58;;;;;;;91.67;35.80;;;4.60;99.90;;;;;;5034376;28;20428;-73
2020/12/14 00:14:24;;;;;;;97.80;35.80;;;4.60;99.90;;;;;;5032921;28;20473;-73
2020/12/14 00:16:50;;;;;;;108.33;40.13;;;4.50;99.90;;;;;;5034101;28;20493;-73
2020/12/14 00:19:15;;;;;;;108.90;39.37;;;4.50;99.90;;;;;;5033906;28;20442;-73
2020/12/14 00:21:41;;;;;;;106.67;39.27;;;4.60;99.90;;;;;;5034317;28;20199;-72
2020/12/14 00:24:06;;;;;;;93.87;38.30;;;4.60;99.90;;;;;;5034109;28;20719;-72
2020/12/14 00:26:31;;;;;;;99.97;35.50;;;4.50;99.90;;;;;;5033861;28;20176;-74
2020/12/14 00:28:57;;;;;;;92.80;37.20;;;4.60;99.90;;;;;;5033741;28;20231;-73
2020/12/14 00:31:22;;;;;;;109.80;41.10;;;4.60;99.90;;;;;;5033775;28;20243;-75
2020/12/14 00:33:48;;;;;;;91.47;37.97;;;4.60;99.90;;;;;;5032781;28;20175;-74
2020/12/14 00:36:14;;;;;;;99.23;34.97;;;4.70;99.90;;;;;;5033638;28;20692;-72
2020/12/14 00:38:40;;;;;;;104.20;37.13;;;4.60;99.90;;;;;;5033729;28;20184;-73
2020/12/14 00:41:09;;;;;;;110.57;39.00;;;4.70;99.90;;;;;;5033740;28;20245;-73
2020/12/14 00:43:34;;;;;;;110.90;43.10;;;4.70;99.90;;;;;;5033894;28;20898;-73
2020/12/14 00:46:00;;;;;;;97.80;34.53;;;4.70;99.90;;;;;;5033684;28;20425;-73
2020/12/14 00:48:25;;;;;;;101.23;35.23;;;4.80;99.90;;;;;;5033398;28;20226;-73
2020/12/14 00:50:51;;;;;;;104.13;36.47;;;4.70;99.90;;;;;;5033516;28;20647;-73
2020/12/14 00:53:16;;;;;;;85.87;36.00;;;4.70;99.90;;;;;;5033406;28;20659;-73
2020/12/14 00:55:42;;;;;;;105.97;38.60;;;4.70;99.90;;;;;;5033971;28;20180;-73
2020/12/14 00:58:07;;;;;;;93.70;35.00;;;4.80;99.90;;;;;;5033040;28;20649;-73
2020/12/14 01:00:33;;;;;;;106.00;38.33;;;4.80;99.90;;;;;;5033320;28;20225;-73
2020/12/14 01:02:58;;;;;;;88.90;35.27;;;4.70;99.90;;;;;;5033500;28;20170;-76
2020/12/14 01:05:24;;;;;;;90.43;36.57;;;4.70;99.90;;;;;;5033333;28;20167;-74
2020/12/14 01:07:50;;;;;;;108.47;38.70;;;4.80;99.90;;;;;;5033005;28;20180;-74
2020/12/14 01:10:15;;;;;;;102.97;39.23;;;4.80;99.90;;;;;;5033091;28;20274;-74
2020/12/14 01:12:41;;;;;;;104.17;38.27;;;4.70;99.90;;;;;;5032877;28;20413;-74
2020/12/14 01:15:07;;;;;;;102.47;36.37;;;4.80;99.90;;;;;;5033163;28;20194;-74
2020/12/14 01:17:33;;;;;;;91.37;36.93;;;4.80;99.90;;;;;;5032867;28;20171;-74
2020/12/14 01:19:58;;;;;;;101.57;39.87;;;4.80;99.90;;;;;;5014381;28;20505;-74
2020/12/14 01:22:24;;;;;;;89.93;34.90;;;4.90;99.90;;;;;;5013232;28;20872;-74
2020/12/14 01:24:49;;;;;;;102.03;35.60;;;4.90;99.90;;;;;;5013362;28;20172;-72
2020/12/14 01:27:15;;;;;;;110.23;38.50;;;4.90;99.90;;;;;;5026731;28;20183;-73
2020/12/14 01:29:40;;;;;;;83.60;34.57;;;4.90;99.90;;;;;;5032763;28;20224;-74
2020/12/14 01:32:06;;;;;;;90.57;34.97;;;4.90;99.90;;;;;;5032960;28;20305;-73
2020/12/14 01:34:31;;;;;;;87.00;34.87;;;4.90;99.90;;;;;;5032870;28;20168;-74
2020/12/14 01:36:57;;;;;;;87.67;39.97;;;4.80;99.90;;;;;;5032938;28;20164;-74
2020/12/14 01:39:22;;;;;;;79.47;33.17;;;4.90;99.90;;;;;;5032825;28;20253;-74
2020/12/14 01:41:48;;;;;;;87.83;34.73;;;4.90;99.90;;;;;;5032643;28;20215;-72
2020/12/14 01:44:13;;;;;;;83.33;33.87;;;5.00;99.90;;;;;;5032776;28;20168;-74
2020/12/14 01:46:42;;;;;;;77.83;34.20;;;5.00;99.90;;;;;;5032520;28;20170;-73
2020/12/14 01:49:09;;;;;;;84.67;36.00;;;5.00;99.90;;;;;;5032513;28;20183;-73
2020/12/14 01:51:35;;;;;;;89.17;35.43;;;5.00;99.90;;;;;;5032552;28;20410;-74
2020/12/14 01:54:07;;;;;;;85.10;34.67;;;5.00;99.90;;;;;;5032565;28;20422;-73
2020/12/14 01:56:33;;;;;;;82.57;33.97;;;5.00;99.90;;;;;;5031947;28;20402;-73
2020/12/14 01:58:58;;;;;;;79.23;32.40;;;5.00;99.90;;;;;;5032163;28;20461;-73
2020/12/14 02:01:24;;;;;;;66.07;32.13;;;5.00;99.90;;;;;;5032001;28;20195;-73
2020/12/14 02:03:49;;;;;;;76.83;33.03;;;5.00;99.90;;;;;;5029966;28;20182;-74
2020/12/14 02:06:14;;;;;;;73.87;32.47;;;5.00;99.90;;;;;;5032501;28;20620;-73
2020/12/14 02:08:40;;;;;;;60.30;29.93;;;5.10;99.90;;;;;;5032076;28;20635;-74
2020/12/14 02:11:05;;;;;;;78.30;31.47;;;5.00;99.90;;;;;;5032016;28;20179;-74
2020/12/14 02:13:31;;;;;;;64.10;29.77;;;5.10;99.90;;;;;;5032150;28;20287;-73
2020/12/14 02:15:57;;;;;;;61.77;26.90;;;5.00;99.90;;;;;;5032078;28;20179;-74
2020/12/14 02:18:23;;;;;;;59.37;27.80;;;5.00;99.90;;;;;;5031921;28;20616;-74
2020/12/14 02:20:49;;;;;;;67.53;31.30;;;5.00;99.90;;;;;;5031804;28;20533;-74
2020/12/14 02:23:15;;;;;;;69.47;30.47;;;5.10;99.90;;;;;;5032088;28;20635;-74
2020/12/14 02:25:40;;;;;;;74.27;30.20;;;5.00;99.90;;;;;;5031938;28;20398;-74
2020/12/14 02:28:05;;;;;;;65.83;30.83;;;5.00;99.90;;;;;;5032846;28;20183;-73
2020/12/14 02:30:31;;;;;;;64.63;27.87;;;5.10;99.90;;;;;;5031950;28;20168;-73
2020/12/14 02:32:56;;;;;;;63.17;28.10;;;5.00;99.90;;;;;;5031819;28;20258;-74
2020/12/14 02:35:22;;;;;;;58.63;26.47;;;5.00;99.90;;;;;;5031498;28;20218;-73
2020/12/14 02:37:47;;;;;;;74.87;29.97;;;5.00;99.90;;;;;;5031323;28;20171;-73
2020/12/14 02:40:13;;;;;;;73.30;28.13;;;5.00;99.90;;;;;;5031744;28;20244;-74
2020/12/14 02:42:38;;;;;;;59.60;28.17;;;5.00;99.90;;;;;;5030374;28;20174;-74
2020/12/14 02:45:04;;;;;;;55.90;27.70;;;5.10;99.90;;;;;;5031708;28;20258;-73
2020/12/14 02:47:29;;;;;;;82.13;29.30;;;5.10;99.90;;;;;;5030362;28;20168;-73
2020/12/14 02:49:55;;;;;;;63.13;26.93;;;5.00;99.90;;;;;;5031562;28;20317;-74
2020/12/14 02:52:20;;;;;;;54.17;28.30;;;5.10;99.90;;;;;;5031630;28;20635;-73
2020/12/14 02:54:46;;;;;;;54.97;26.70;;;5.10;99.90;;;;;;5031512;28;20549;-72
2020/12/14 02:57:12;;;;;;;71.57;29.63;;;5.10;99.90;;;;;;5031485;28;20271;-73
2020/12/14 02:59:38;;;;;;;51.67;25.60;;;5.10;99.90;;;;;;5029630;28;20184;-72
2020/12/14 03:02:04;;;;;;;59.10;25.23;;;5.10;99.90;;;;;;5011615;28;20792;-73
2020/12/14 03:04:30;;;;;;;57.83;26.23;;;5.10;99.90;;;;;;5011741;28;20411;-74
2020/12/14 03:06:56;;;;;;;53.47;25.40;;;5.10;99.90;;;;;;5011792;28;20172;-73
2020/12/14 03:09:22;;;;;;;47.60;23.07;;;5.10;99.90;;;;;;5011680;28;20795;-73
2020/12/14 03:11:48;;;;;;;63.73;26.80;;;5.10;99.90;;;;;;5011761;28;20172;-74
2020/12/14 03:14:14;;;;;;;54.67;25.57;;;5.10;99.90;;;;;;5012182;28;20180;-74
2020/12/14 03:16:44;;;;;;;51.30;24.97;;;5.10;99.90;;;;;;5019392;28;20797;-74
2020/12/14 03:19:09;;;;;;;60.77;28.40;;;5.10;99.90;;;;;;5023282;28;20492;-73
2020/12/14 03:21:35;;;;;;;59.00;25.83;;;5.20;99.90;;;;;;5031287;28;20462;-74
2020/12/14 03:24:01;;;;;;;61.00;26.23;;;5.20;99.90;;;;;;5031435;28;20206;-74
2020/12/14 03:26:26;;;;;;;58.00;25.17;;;5.20;99.90;;;;;;5031178;28;20172;-74
2020/12/14 03:28:52;;;;;;;56.97;26.47;;;5.20;99.90;;;;;;5030554;28;21037;-74
2020/12/14 03:31:18;;;;;;;62.57;26.80;;;5.30;99.90;;;;;;5031487;28;20183;-74
2020/12/14 03:33:44;;;;;;;56.97;25.60;;;5.30;99.90;;;;;;5030417;28;20442;-74
2020/12/14 03:36:10;;;;;;;57.40;25.37;;;5.30;99.90;;;;;;5031337;28;20180;-74
2020/12/14 03:38:35;;;;;;;56.97;27.03;;;5.40;99.90;;;;;;5031266;28;20571;-74
2020/12/14 03:41:04;;;;;;;72.57;27.80;;;5.30;99.90;;;;;;5031305;28;20668;-74
2020/12/14 03:43:30;;;;;;;54.67;27.77;;;5.30;99.90;;;;;;5031112;28;20176;-74
2020/12/14 03:45:56;;;;;;;65.87;27.40;;;5.30;99.90;;;;;;5031482;28;20815;-74
2020/12/14 03:48:22;;;;;;;59.97;26.90;;;5.30;99.90;;;;;;5033436;28;20167;-74
2020/12/14 03:50:47;;;;;;;66.90;27.67;;;5.40;99.90;;;;;;5034846;28;20505;-73
2020/12/14 03:53:13;;;;;;;63.73;27.57;;;5.40;99.90;;;;;;5034603;28;20375;-74
2020/12/14 03:55:40;;;;;;;64.23;25.87;;;5.40;99.90;;;;;;5034599;28;20175;-74
2020/12/14 03:58:06;;;;;;;57.37;29.47;;;5.40;99.90;;;;;;5034407;28;20180;-75
2020/12/14 04:00:31;;;;;;;57.87;25.50;;;5.30;99.90;;;;;;5034373;28;20453;-74
2020/12/14 04:02:57;;;;;;;55.83;25.70;;;5.30;99.90;;;;;;5034417;28;20402;-73
2020/12/14 04:05:22;;;;;;;65.93;27.60;;;5.40;99.90;;;;;;5034451;28;20167;-73
2020/12/14 04:07:48;;;;;;;61.97;28.13;;;5.40;99.90;;;;;;5034301;28;20233;-73
2020/12/14 04:10:13;;;;;;;66.70;27.57;;;5.40;99.90;;;;;;5034512;28;20192;-75
2020/12/14 04:12:39;;;;;;;52.90;27.00;;;5.40;99.90;;;;;;5034723;28;20533;-74
2020/12/14 04:15:04;;;;;;;53.50;26.47;;;5.40;99.90;;;;;;5034168;28;20176;-74
2020/12/14 04:17:30;;;;;;;46.13;25.13;;;5.40;99.90;;;;;;5034107;28;20617;-74
2020/12/14 04:19:56;;;;;;;53.27;26.43;;;5.30;99.90;;;;;;5034127;28;20191;-74
2020/12/14 04:22:21;;;;;;;54.93;24.63;;;5.30;99.90;;;;;;5034181;28;20195;-74
2020/12/14 04:24:47;;;;;;;53.40;23.80;;;5.20;99.90;;;;;;5033999;28;20441;-74
2020/12/14 04:27:12;;;;;;;48.57;25.53;;;5.20;99.90;;;;;;5033743;28;20176;-74
2020/12/14 04:29:38;;;;;;;50.77;27.10;;;5.20;99.90;;;;;;5033932;28;20191;-74
2020/12/14 04:32:03;;;;;;;46.23;24.30;;;5.10;99.90;;;;;;5033720;28;20175;-74
2020/12/14 04:34:29;;;;;;;44.80;22.97;;;5.10;99.90;;;;;;5033994;28;20631;-74
2020/12/14 04:36:54;;;;;;;48.93;23.73;;;5.10;99.90;;;;;;5033748;28;20246;-75
2020/12/14 04:39:19;;;;;;;49.37;23.70;;;5.10;99.90;;;;;;5033624;28;20191;-74
2020/12/14 04:41:45;;;;;;;41.13;23.70;;;5.00;99.90;;;;;;5033616;28;20198;-74
2020/12/14 04:44:12;;;;;;;48.37;24.33;;;5.00;99.90;;;;;;5033670;28;20628;-73
2020/12/14 04:46:38;;;;;;;39.93;23.87;;;5.00;99.90;;;;;;5033928;28;20160;-74
2020/12/14 04:49:06;;;;;;;54.97;22.90;;;5.00;99.90;;;;;;5033526;28;20418;-74
2020/12/14 04:51:33;;;;;;;48.40;22.33;;;5.00;99.90;;;;;;5033606;28;20402;-73
2020/12/14 04:54:01;;;;;;;43.73;21.60;;;5.00;99.90;;;;;;5033515;28;20410;-72
2020/12/14 04:56:27;;;;;;;40.43;22.90;;;5.00;99.90;;;;;;5033357;28;20406;-72
2020/12/14 04:58:55;;;;;;;44.67;22.63;;;5.00;99.90;;;;;;5032750;28;20418;-75
2020/12/14 05:01:21;;;;;;;38.60;20.30;;;5.00;99.90;;;;;;5033361;28;20461;-73
2020/12/14 05:03:47;;;;;;;40.00;21.87;;;5.00;99.90;;;;;;5033388;28;20406;-73
2020/12/14 05:06:12;;;;;;;34.73;19.40;;;4.90;99.90;;;;;;5033341;28;20421;-73
2020/12/14 05:08:38;;;;;;;40.90;21.90;;;4.90;99.90;;;;;;5032998;28;20210;-73
2020/12/14 05:11:03;;;;;;;34.73;20.97;;;4.90;99.90;;;;;;5033045;28;20246;-75
2020/12/14 05:13:29;;;;;;;47.40;24.20;;;4.90;99.90;;;;;;5033416;28;20690;-73
2020/12/14 05:15:55;;;;;;;37.23;21.60;;;4.80;99.90;;;;;;5033240;28;20175;-73
2020/12/14 05:18:26;;;;;;;35.57;20.07;;;4.80;99.90;;;;;;5032903;28;20671;-73
2020/12/14 05:21:03;;;;;;;39.47;20.67;;;4.80;99.90;;;;;;5032771;28;20453;-75
2020/12/14 05:23:30;;;;;;;40.43;24.70;;;4.90;99.90;;;;;;5032776;28;20401;-73
2020/12/14 05:26:06;;;;;;;38.57;21.77;;;4.90;99.90;;;;;;5032818;28;20419;-74
2020/12/14 05:28:32;;;;;;;41.63;21.77;;;4.90;99.90;;;;;;5031538;28;20426;-74
2020/12/14 05:30:58;;;;;;;37.23;21.10;;;4.90;99.90;;;;;;5034294;28;20927;-73
2020/12/14 05:33:26;;;;;;;38.23;21.40;;;4.90;99.90;;;;;;5032891;28;20285;-74
2020/12/14 05:35:52;;;;;;;37.50;21.43;;;4.90;99.90;;;;;;5033231;28;20434;-74
2020/12/14 05:38:26;;;;;;;36.30;21.77;;;4.90;99.90;;;;;;5032678;28;20394;-74
2020/12/14 05:41:03;;;;;;;35.30;21.20;;;4.90;99.90;;;;;;5032590;28;20449;-74
2020/12/14 05:43:31;;;;;;;34.00;20.80;;;4.80;99.90;;;;;;5032833;28;20483;-74
2020/12/14 05:46:13;;;;;;;36.40;21.37;;;4.80;99.90;;;;;;5032524;28;20402;-73
2020/12/14 05:48:38;;;;;;;38.07;20.63;;;4.90;99.90;;;;;;5032605;28;20410;-73
2020/12/14 05:51:05;;;;;;;40.27;22.37;;;4.90;99.90;;;;;;5032531;28;20491;-73
2020/12/14 05:53:44;;;;;;;38.10;21.80;;;4.80;99.90;;;;;;5032622;28;20179;-74
2020/12/14 05:56:10;;;;;;;31.27;19.43;;;4.80;99.90;;;;;;5032293;28;20406;-74
2020/12/14 05:58:37;;;;;;;31.90;19.60;;;4.90;99.90;;;;;;5032406;28;20439;-74
2020/12/14 06:01:05;;;;;;;37.50;21.97;;;4.80;99.90;;;;;;5032116;28;20290;-75
2020/12/14 06:03:31;;;;;;;34.53;21.33;;;4.80;99.90;;;;;;5032355;28;20410;-74
2020/12/14 06:06:04;;;;;;;31.17;21.93;;;4.80;99.90;;;;;;5032276;28;20455;-75
2020/12/14 06:08:45;;;;;;;33.23;20.70;;;4.70;99.90;;;;;;5032039;28;20604;-75
2020/12/14 06:11:17;;;;;;;37.07;19.87;;;4.70;99.90;;;;;;5031388;28;20402;-75
2020/12/14 06:13:59;;;;;;;35.27;21.90;;;4.70;99.90;;;;;;5032086;28;20402;-74
2020/12/14 06:16:27;;;;;;;32.70;19.97;;;4.70;99.90;;;;;;5033181;28;20565;-75
2020/12/14 06:18:53;;;;;;;33.83;19.73;;;4.70;99.90;;;;;;5032040;28;20422;-74
2020/12/14 06:21:32;;;;;;;39.80;21.43;;;4.70;99.90;;;;;;5031878;28;20520;-74
2020/12/14 06:24:00;;;;;;;39.10;20.93;;;4.70;99.90;;;;;;5031964;28;20405;-73
2020/12/14 06:26:27;;;;;;;36.50;21.60;;;4.70;99.90;;;;;;5031779;28;20415;-74
2020/12/14 06:28:54;;;;;;;40.17;22.40;;;4.70;99.90;;;;;;5031943;28;20429;-75
2020/12/14 06:31:33;;;;;;;36.20;22.07;;;4.70;99.90;;;;;;5031759;28;20449;-74
2020/12/14 06:34:02;;;;;;;36.23;22.07;;;4.70;99.90;;;;;;5031665;28;20402;-75
2020/12/14 06:36:36;;;;;;;45.63;24.97;;;4.70;99.90;;;;;;5032080;28;20463;-74
2020/12/14 06:39:02;;;;;;;44.10;24.10;;;4.70;99.90;;;;;;5031827;28;20509;-74
2020/12/14 06:41:30;;;;;;;38.77;22.60;;;4.60;99.90;;;;;;5031654;28;20541;-74
2020/12/14 06:44:09;;;;;;;39.47;23.83;;;4.70;99.90;;;;;;5031754;28;20167;-75
2020/12/14 06:46:35;;;;;;;35.63;22.83;;;4.70;99.90;;;;;;5031710;28;20405;-74
2020/12/14 06:49:01;;;;;;;47.20;23.67;;;4.70;99.90;;;;;;5031527;28;20414;-74
2020/12/14 06:51:51;;;;;;;42.63;25.20;;;4.70;99.90;;;;;;5031802;28;20414;-75
2020/12/14 06:54:42;;;;;;;44.87;22.73;;;4.70;99.90;;;;;;5031688;28;20455;-74
2020/12/14 06:57:12;;;;;;;44.40;25.17;;;4.70;99.90;;;;;;5030103;28;20417;-73
2020/12/14 06:59:38;;;;;;;44.87;23.47;;;4.70;99.90;;;;;;5031534;28;20955;-73
2020/12/14 07:02:07;;;;;;;42.30;21.40;;;4.70;99.90;;;;;;5031344;28;20576;-73
2020/12/14 07:04:33;;;;;;;49.17;26.13;;;4.70;99.90;;;;;;5031455;28;20243;-74
2020/12/14 07:07:04;;;;;;;51.37;26.00;;;4.70;99.90;;;;;;5031411;28;20445;-74
2020/12/14 07:09:32;;;;;;;49.73;24.33;;;4.70;99.90;;;;;;5031439;28;20199;-74
2020/12/14 07:12:10;;;;;;;55.83;24.00;;;4.70;99.90;;;;;;5031483;28;20410;-74
2020/12/14 07:14:57;;;;;;;47.50;27.60;;;4.70;99.90;;;;;;5030402;28;20410;-74
2020/12/14 07:17:22;;;;;;;44.37;25.57;;;4.60;99.90;;;;;;5031626;28;20413;-74
2020/12/14 07:19:50;;;;;;;37.80;23.10;;;4.70;99.90;;;;;;5031731;28;20426;-74
2020/12/14 07:22:32;;;;;;;46.37;22.87;;;4.70;99.90;;;;;;5032179;28;20184;-74
2020/12/14 07:25:02;;;;;;;37.23;22.90;;;4.70;99.90;;;;;;5035298;28;20417;-74
2020/12/14 07:27:28;;;;;;;44.13;23.37;;;4.70;99.90;;;;;;5035444;28;20925;-73
2020/12/14 07:30:08;;;;;;;36.03;21.27;;;4.70;99.90;;;;;;5034008;28;20437;-73
2020/12/14 07:32:33;;;;;;;36.50;21.30;;;4.70;99.90;;;;;;5035051;28;20968;-74
2020/12/14 07:34:59;;;;;;;36.33;20.63;;;4.70;99.90;;;;;;5035012;28;20446;-73
2020/12/14 07:37:25;;;;;;;37.73;20.23;;;4.70;99.90;;;;;;5034869;28;20179;-73
2020/12/14 07:39:51;;;;;;;35.73;21.37;;;4.70;99.90;;;;;;5034835;28;20214;-73
2020/12/14 07:42:28;;;;;;;37.17;21.87;;;4.70;99.90;;;;;;5034911;28;20176;-73
2020/12/14 07:45:14;;;;;;;35.30;21.17;;;4.70;99.90;;;;;;5034781;28;20394;-73
2020/12/14 07:47:41;;;;;;;41.00;21.53;;;4.70;99.90;;;;;;5034689;28;20446;-74
2020/12/14 07:50:18;;;;;;;36.23;20.20;;;4.70;99.90;;;;;;5034600;28;20425;-73
2020/12/14 07:52:46;;;;;;;33.77;21.70;;;4.70;99.90;;;;;;5034885;28;20395;-73
2020/12/14 07:55:13;;;;;;;37.37;21.60;;;4.80;99.90;;;;;;5035078;28;20403;-74
2020/12/14 07:57:41;;;;;;;33.90;19.53;;;4.70;99.90;;;;;;5034495;28;20572;-73
2020/12/14 08:00:08;;;;;;;35.30;20.63;;;4.70;99.90;;;;;;5034430;28;20423;-73
2020/12/14 08:02:34;;;;;;;31.43;22.00;;;4.80;99.90;;;;;;5034612;28;20456;-73
2020/12/14 08:05:03;;;;;;;36.37;21.40;;;4.70;99.90;;;;;;5034380;28;20403;-73
2020/12/14 08:07:37;;;;;;;27.93;18.57;;;4.70;99.90;;;;;;5034180;28;20175;-73
2020/12/14 08:10:04;;;;;;;28.80;18.90;;;4.70;99.90;;;;;;5034443;28;20836;-73
2020/12/14 08:12:30;;;;;;;30.40;19.50;;;4.70;99.90;;;;;;5034450;28;20489;-73
2020/12/14 08:14:57;;;;;;;30.43;20.40;;;4.80;99.90;;;;;;5034502;28;20831;-73
2020/12/14 08:17:23;;;;;;;26.80;20.17;;;4.80;99.90;;;;;;5034281;28;20192;-74
2020/12/14 08:19:48;;;;;;;27.80;19.93;;;4.80;99.90;;;;;;5034340;28;20432;-74
2020/12/14 08:22:14;;;;;;;23.47;16.73;;;4.80;99.90;;;;;;5034140;28;20541;-73
2020/12/14 08:24:41;;;;;;;32.33;19.50;;;4.80;99.90;;;;;;5034124;28;20163;-74
2020/12/14 08:27:11;;;;;;;30.10;18.33;;;4.80;99.90;;;;;;5034096;28;20170;-73
2020/12/14 08:29:55;;;;;;;28.70;19.37;;;4.80;99.90;;;;;;5034168;28;20522;-73
2020/12/14 08:32:20;;;;;;;26.50;19.00;;;4.80;99.90;;;;;;5034406;28;20402;-74
2020/12/14 08:34:46;;;;;;;27.43;19.80;;;4.80;99.90;;;;;;5033165;28;20904;-73
2020/12/14 08:37:12;;;;;;;24.87;17.40;;;4.80;99.90;;;;;;5033646;28;20246;-73
2020/12/14 08:39:37;;;;;;;25.70;17.07;;;4.90;99.90;;;;;;5033738;28;20565;-72
2020/12/14 08:42:04;;;;;;;26.80;17.87;;;4.90;99.90;;;;;;5033733;28;20191;-73
2020/12/14 08:44:29;;;;;;;27.73;21.03;;;4.90;99.90;;;;;;5033610;28;20643;-73
2020/12/14 08:46:55;;;;;;;22.77;17.27;;;4.90;99.90;;;;;;5033625;28;20484;-73
2020/12/14 08:49:21;;;;;;;30.40;19.03;;;4.90;99.90;;;;;;5033589;28;20314;-73
2020/12/14 08:51:48;;;;;;;28.97;18.60;;;4.90;99.90;;;;;;5033621;28;20172;-72
2020/12/14 08:54:15;;;;;;;27.57;18.33;;;5.10;99.90;;;;;;5033564;28;20217;-72
2020/12/14 08:56:41;;;;;;;25.50;17.53;;;5.20;99.90;;;;;;5033517;28;20402;-73
2020/12/14 08:59:14;;;;;;;24.63;17.33;;;5.20;99.90;;;;;;5033361;28;20438;-73
2020/12/14 09:01:53;;;;;;;18.47;16.47;;;5.30;99.90;;;;;;5033524;28;20241;-73
2020/12/14 09:04:26;;;;;;;23.97;17.70;;;5.30;99.90;;;;;;5033486;28;20788;-73
2020/12/14 09:06:52;;;;;;;24.80;17.10;;;5.30;99.90;;;;;;5033325;28;20764;-74
2020/12/14 09:09:17;;;;;;;22.17;16.20;;;5.40;99.90;;;;;;5033178;28;20525;-73
2020/12/14 09:11:45;;;;;;;20.70;15.80;;;5.50;99.90;;;;;;5033461;28;20239;-72
2020/12/14 09:14:18;;;;;;;19.70;15.40;;;5.50;99.90;;;;;;5033258;28;20229;-72
2020/12/14 09:16:50;;;;;;;22.17;15.47;;;5.50;99.90;;;;;;5033063;28;20415;-72
2020/12/14 09:19:20;;;;;;;19.20;14.87;;;5.50;99.90;;;;;;5033363;28;20483;-72
2020/12/14 09:21:46;;;;;;;19.50;14.77;;;5.50;99.90;;;;;;5033272;28;20458;-74
2020/12/14 09:24:14;;;;;;;16.93;14.20;;;5.60;99.90;;;;;;5033227;28;20460;-73
2020/12/14 09:26:41;;;;;;;17.00;13.67;;;5.70;99.90;;;;;;5031883;28;20179;-73
2020/12/14 09:29:07;;;;;;;15.90;13.83;;;5.70;99.90;;;;;;5033083;28;20427;-74
2020/12/14 09:31:33;;;;;;;19.30;13.70;;;5.80;99.90;;;;;;5032960;28;20410;-73
2020/12/14 09:33:58;;;;;;;25.00;15.70;;;5.90;99.90;;;;;;5033036;28;20945;-72
2020/12/14 09:36:24;;;;;;;21.37;14.43;;;5.80;99.90;;;;;;5032637;28;20257;-71
2020/12/14 09:38:49;;;;;;;21.13;15.03;;;5.80;99.90;;;;;;5032739;28;20222;-72
2020/12/14 09:41:15;;;;;;;18.13;13.70;;;5.80;99.90;;;;;;5030766;28;20674;-72
2020/12/14 09:43:43;;;;;;;20.07;13.70;;;5.90;99.90;;;;;;5032234;28;20221;-72
2020/12/14 09:46:09;;;;;;;22.60;13.63;;;5.90;99.90;;;;;;5032238;28;20763;-73
2020/12/14 09:48:35;;;;;;;20.50;15.30;;;6.00;99.90;;;;;;5032320;28;20419;-72
2020/12/14 09:51:02;;;;;;;18.60;13.53;;;6.10;99.90;;;;;;5032586;28;20429;-71
2020/12/14 09:53:27;;;;;;;18.17;13.70;;;6.10;99.90;;;;;;5032245;28;20540;-72
2020/12/14 09:55:53;;;;;;;20.17;14.80;;;6.20;99.90;;;;;;5032657;28;20423;-72
2020/12/14 09:58:18;;;;;;;13.33;11.27;;;6.20;99.90;;;;;;5032415;28;20179;-71
2020/12/14 10:00:44;;;;;;;17.30;13.10;;;6.20;99.90;;;;;;5031819;28;20320;-72
2020/12/14 10:03:09;;;;;;;14.87;11.20;;;6.20;99.90;;;;;;5032700;28;20172;-72
2020/12/14 10:05:34;;;;;;;16.40;12.80;;;6.20;99.90;;;;;;5031264;28;20175;-70
2020/12/14 10:08:00;;;;;;;17.30;11.87;;;6.30;99.90;;;;;;5030669;28;20188;-72
2020/12/14 10:10:25;;;;;;;16.90;11.47;;;6.40;99.90;;;;;;5032139;28;20683;-73
2020/12/14 10:12:58;;;;;;;18.63;11.80;;;6.50;99.90;;;;;;5032266;28;20598;-73
2020/12/14 10:15:23;;;;;;;16.63;13.10;;;6.50;99.90;;;;;;5031905;28;20628;-73
2020/12/14 10:17:49;;;;;;;15.10;11.33;;;6.70;99.90;;;;;;5031976;28;20426;-73
2020/12/14 10:20:14;;;;;;;16.63;10.57;;;6.70;99.90;;;;;;5031958;28;20223;-76
2020/12/14 10:22:39;;;;;;;18.77;13.40;;;6.80;99.90;;;;;;5031988;28;20690;-73
2020/12/14 10:25:05;;;;;;;17.13;12.57;;;6.80;99.90;;;;;;5032189;28;20258;-74
2020/12/14 10:27:31;;;;;;;15.07;11.23;;;6.70;99.90;;;;;;5031808;28;20183;-73
2020/12/14 10:29:56;;;;;;;17.93;12.00;;;6.70;99.90;;;;;;5031932;28;20232;-73
2020/12/14 10:32:21;;;;;;;14.43;11.63;;;6.60;99.90;;;;;;5030736;28;20207;-72
2020/12/14 10:34:47;;;;;;;18.83;12.50;;;6.60;99.90;;;;;;5032150;28;20624;-73
2020/12/14 10:37:13;;;;;;;20.70;13.53;;;6.70;99.90;;;;;;5031822;28;20247;-73
2020/12/14 10:39:38;;;;;;;22.60;13.77;;;6.70;99.90;;;;;;5031884;28;20715;-73
2020/12/14 10:42:03;;;;;;;19.67;13.70;;;6.90;99.90;;;;;;5031935;28;20215;-70
2020/12/14 10:44:30;;;;;;;20.53;13.03;;;6.70;99.90;;;;;;5031710;28;20175;-72
2020/12/14 10:47:02;;;;;;;20.53;13.13;;;6.90;99.90;;;;;;5031917;28;20318;-74
2020/12/14 10:49:27;;;;;;;13.70;10.33;;;6.90;99.90;;;;;;5031340;28;20516;-74
2020/12/14 10:51:52;;;;;;;16.67;12.07;;;6.70;99.90;;;;;;5023128;28;20450;-75
2020/12/14 10:54:18;;;;;;;15.57;11.73;;;6.70;99.90;;;;;;5011933;28;20175;-74
2020/12/14 10:56:45;;;;;;;18.70;13.20;;;6.90;99.90;;;;;;5028040;28;20184;-73
2020/12/14 10:59:11;;;;;;;20.67;14.93;;;6.80;99.90;;;;;;5035562;28;20221;-73
2020/12/14 11:01:36;;;;;;;15.27;11.37;;;6.80;99.90;;;;;;5035566;28;20487;-74
2020/12/14 11:04:02;;;;;;;15.77;11.53;;;6.90;99.90;;;;;;5035564;28;20171;-74
2020/12/14 11:06:31;;;;;;;19.93;13.40;;;7.10;99.90;;;;;;5035686;28;20168;-74
2020/12/14 11:08:57;;;;;;;16.77;12.60;;;7.00;99.90;;;;;;5035510;28;20293;-74
2020/12/14 11:11:22;;;;;;;14.03;11.13;;;7.10;99.90;;;;;;5035361;28;20497;-73
2020/12/14 11:13:49;;;;;;;13.73;11.87;;;7.10;99.90;;;;;;5035453;28;20607;-74
2020/12/14 11:16:15;;;;;;;16.10;11.07;;;7.20;99.90;;;;;;5035359;28;20485;-74
2020/12/14 11:18:40;;;;;;;18.00;13.40;;;7.20;99.90;;;;;;5035699;28;20469;-71
2020/12/14 11:21:06;;;;;;;17.53;11.70;;;7.30;99.90;;;;;;5035443;28;20187;-74
2020/12/14 11:23:31;;;;;;;18.73;12.10;;;7.40;99.90;;;;;;5035390;28;20563;-74
2020/12/14 11:25:57;;;;;;;20.03;12.33;;;7.40;99.90;;;;;;5035129;28;20159;-74
2020/12/14 11:28:24;;;;;;;18.10;12.53;;;7.30;99.90;;;;;;5035205;28;20400;-74
2020/12/14 11:30:50;;;;;;;14.93;11.23;;;7.40;99.90;;;;;;5035338;28;20168;-74
2020/12/14 11:33:16;;;;;;;13.87;10.60;;;7.60;99.90;;;;;;5035336;28;20469;-74
2020/12/14 11:35:43;;;;;;;16.43;11.33;;;7.60;99.90;;;;;;5035884;28;20274;-76
2020/12/14 11:38:09;;;;;;;13.50;9.60;;;7.60;99.90;;;;;;5035839;28;20410;-74
2020/12/14 11:40:34;;;;;;;14.23;9.43;;;7.70;99.90;;;;;;5036606;28;20446;-73
2020/12/14 11:43:00;;;;;;;14.33;9.20;;;7.80;99.90;;;;;;5033554;28;20414;-73
2020/12/14 11:45:27;;;;;;;13.23;8.90;;;7.80;99.90;;;;;;5034930;28;20164;-73
2020/12/14 11:47:53;;;;;;;11.53;8.33;;;7.90;99.90;;;;;;5034528;28;20578;-73
2020/12/14 11:50:18;;;;;;;14.40;9.10;;;7.80;99.90;;;;;;5034507;28;20491;-74
2020/12/14 11:52:46;;;;;;;13.27;9.10;;;7.90;99.90;;;;;;5034621;28;20160;-74
2020/12/14 11:55:11;;;;;;;11.80;8.50;;;7.90;99.90;;;;;;5033988;28;20199;-73
2020/12/14 11:57:37;;;;;;;17.70;9.60;;;7.90;99.90;;;;;;5034225;28;20452;-73
2020/12/14 12:00:05;;;;;;;16.07;10.00;;;7.90;99.90;;;;;;5034411;28;20187;-73
2020/12/14 12:02:30;;;;;;;11.33;8.50;;;7.80;99.90;;;;;;5034525;28;20170;-73
2020/12/14 12:04:56;;;;;;;12.03;8.90;;;7.80;99.90;;;;;;5034408;28;20398;-74
2020/12/14 12:07:21;;;;;;;11.17;8.73;;;7.80;99.90;;;;;;5034367;28;20198;-73
2020/12/14 12:09:47;;;;;;;13.33;9.33;;;7.80;99.90;;;;;;5032793;28;20231;-74
2020/12/14 12:12:12;;;;;;;13.77;8.70;;;7.70;99.90;;;;;;5034521;28;20171;-74
2020/12/14 12:14:38;;;;;;;14.23;8.90;;;7.80;99.90;;;;;;5034401;28;20402;-74
2020/12/14 12:17:03;;;;;;;12.17;8.70;;;7.70;99.90;;;;;;5034213;28;20192;-74
2020/12/14 12:19:29;;;;;;;14.23;9.50;;;7.70;99.90;;;;;;5034138;28;20552;-74
2020/12/14 12:21:54;;;;;;;14.23;9.07;;;7.70;99.90;;;;;;5034029;28;20325;-74
2020/12/14 12:24:22;;;;;;;11.87;8.23;;;7.80;99.90;;;;;;5034172;28;20259;-74
2020/12/14 12:26:49;;;;;;;11.13;8.07;;;7.90;99.90;;;;;;5033817;28;20249;-73
2020/12/14 12:29:15;;;;;;;12.40;9.10;;;7.90;99.90;;;;;;5033678;28;20414;-74
2020/12/14 12:31:41;;;;;;;13.53;8.83;;;8.00;99.90;;;;;;5034006;28;20398;-73
2020/12/14 12:34:07;;;;;;;12.77;8.90;;;8.00;99.90;;;;;;5033953;28;20403;-73
2020/12/14 12:36:32;;;;;;;11.07;8.93;;;8.00;99.90;;;;;;5034083;28;20406;-74
2020/12/14 12:38:58;;;;;;;11.00;8.40;;;8.00;99.90;;;;;;5033667;28;20222;-73